sensor_id;sensor_type;location;lat;lon;timestamp;P1;durP1;ratioP1;P2;durP2;ratioP2
9409;SDS011;4744;52.576;13.568;2023-08-20T00:01:49;17.60;;;15.95;;
9409;SDS011;4744;52.576;13.568;2023-08-20T00:04:25;17.10;;;15.50;;
9409;SDS011;4744;52.576;13.568;2023-08-20T00:06:53;15.77;;;14.48;;
9409;SDS011;4744;52.576;13.568;2023-08-20T00:09:20;15.75;;;14.45;;
9409;SDS011;4744;52.576;13.568;2023-08-20T00:11:48;14.80;;;13.60;;
9409;SDS011;4744;52.576;13.568;2023-08-20T00:14:15;14.50;;;13.30;;
9409;SDS011;4744;52.576;13.568;2023-08-20T00:16:43;14.43;;;13.25;;
9409;SDS011;4744;52.576;13.568;2023-08-20T00:19:12;14.68;;;13.55;;
9409;SDS011;4744;52.576;13.568;2023-08-20T00:21:41;16.55;;;15.15;;
9409;SDS011;4744;52.576;13.568;2023-08-20T00:24:10;16.08;;;14.77;;
9409;SDS011;4744;52.576;13.568;2023-08-20T00:26:38;15.90;;;14.65;;
9409;SDS011;4744;52.576;13.568;2023-08-20T00:29:05;15.63;;;14.23;;
9409;SDS011;4744;52.576;13.568;2023-08-20T00:31:32;15.82;;;14.40;;
9409;SDS011;4744;52.576;13.568;2023-08-20T00:33:59;15.20;;;14.05;;
9409;SDS011;4744;52.576;13.568;2023-08-20T00:36:26;13.43;;;12.43;;
9409;SDS011;4744;52.576;13.568;2023-08-20T00:38:54;13.23;;;12.23;;
9409;SDS011;4744;52.576;13.568;2023-08-20T00:41:21;14.00;;;12.82;;
9409;SDS011;4744;52.576;13.568;2023-08-20T00:43:48;15.50;;;14.20;;
9409;SDS011;4744;52.576;13.568;2023-08-20T00:46:15;14.43;;;13.23;;
9409;SDS011;4744;52.576;13.568;2023-08-20T00:48:42;15.65;;;14.45;;
9409;SDS011;4744;52.576;13.568;2023-08-20T00:51:09;16.00;;;14.60;;
9409;SDS011;4744;52.576;13.568;2023-08-20T00:53:36;14.55;;;13.45;;
9409;SDS011;4744;52.576;13.568;2023-08-20T00:56:05;13.52;;;12.48;;
9409;SDS011;4744;52.576;13.568;2023-08-20T00:58:31;13.10;;;12.10;;
9409;SDS011;4744;52.576;13.568;2023-08-20T01:00:58;13.25;;;12.25;;
9409;SDS011;4744;52.576;13.568;2023-08-20T01:03:25;13.95;;;12.85;;
9409;SDS011;4744;52.576;13.568;2023-08-20T01:05:54;12.63;;;11.73;;
9409;SDS011;4744;52.576;13.568;2023-08-20T01:08:29;13.10;;;12.00;;
9409;SDS011;4744;52.576;13.568;2023-08-20T01:11:06;13.15;;;12.05;;
9409;SDS011;4744;52.576;13.568;2023-08-20T01:13:36;13.27;;;12.18;;
9409;SDS011;4744;52.576;13.568;2023-08-20T01:16:03;12.82;;;11.93;;
9409;SDS011;4744;52.576;13.568;2023-08-20T01:18:30;11.90;;;10.98;;
9409;SDS011;4744;52.576;13.568;2023-08-20T01:20:58;12.80;;;11.80;;
9409;SDS011;4744;52.576;13.568;2023-08-20T01:23:56;13.15;;;12.13;;
9409;SDS011;4744;52.576;13.568;2023-08-20T01:26:40;13.35;;;12.15;;
9409;SDS011;4744;52.576;13.568;2023-08-20T01:29:23;12.57;;;11.68;;
9409;SDS011;4744;52.576;13.568;2023-08-20T01:31:52;12.95;;;11.85;;
9409;SDS011;4744;52.576;13.568;2023-08-20T01:34:20;12.75;;;11.65;;
9409;SDS011;4744;52.576;13.568;2023-08-20T01:36:48;13.68;;;12.68;;
9409;SDS011;4744;52.576;13.568;2023-08-20T01:39:15;14.75;;;13.60;;
9409;SDS011;4744;52.576;13.568;2023-08-20T01:41:43;13.73;;;12.63;;
9409;SDS011;4744;52.576;13.568;2023-08-20T01:44:10;13.18;;;12.18;;
9409;SDS011;4744;52.576;13.568;2023-08-20T01:46:39;12.60;;;11.60;;
9409;SDS011;4744;52.576;13.568;2023-08-20T01:49:06;13.52;;;12.38;;
9409;SDS011;4744;52.576;13.568;2023-08-20T01:51:33;12.60;;;11.70;;
9409;SDS011;4744;52.576;13.568;2023-08-20T01:54:01;12.75;;;11.85;;
9409;SDS011;4744;52.576;13.568;2023-08-20T01:56:28;12.65;;;11.45;;
9409;SDS011;4744;52.576;13.568;2023-08-20T01:58:55;12.52;;;11.45;;
9409;SDS011;4744;52.576;13.568;2023-08-20T02:01:23;12.25;;;11.25;;
9409;SDS011;4744;52.576;13.568;2023-08-20T02:03:52;12.57;;;11.57;;
9409;SDS011;4744;52.576;13.568;2023-08-20T02:06:19;12.32;;;11.38;;
9409;SDS011;4744;52.576;13.568;2023-08-20T02:08:46;12.13;;;11.23;;
9409;SDS011;4744;52.576;13.568;2023-08-20T02:11:13;12.73;;;11.63;;
9409;SDS011;4744;52.576;13.568;2023-08-20T02:13:40;12.95;;;11.95;;
9409;SDS011;4744;52.576;13.568;2023-08-20T02:16:07;12.30;;;11.30;;
9409;SDS011;4744;52.576;13.568;2023-08-20T02:18:36;12.13;;;11.23;;
9409;SDS011;4744;52.576;13.568;2023-08-20T02:21:04;13.10;;;11.80;;
9409;SDS011;4744;52.576;13.568;2023-08-20T02:23:32;13.35;;;12.15;;
9409;SDS011;4744;52.576;13.568;2023-08-20T02:25:59;12.90;;;11.65;;
9409;SDS011;4744;52.576;13.568;2023-08-20T02:28:25;13.25;;;12.13;;
9409;SDS011;4744;52.576;13.568;2023-08-20T02:30:53;12.20;;;11.20;;
9409;SDS011;4744;52.576;13.568;2023-08-20T02:33:20;11.98;;;10.98;;
9409;SDS011;4744;52.576;13.568;2023-08-20T02:35:47;12.27;;;11.27;;
9409;SDS011;4744;52.576;13.568;2023-08-20T02:38:15;12.00;;;11.00;;
9409;SDS011;4744;52.576;13.568;2023-08-20T02:40:42;11.75;;;10.75;;
9409;SDS011;4744;52.576;13.568;2023-08-20T02:43:09;11.13;;;10.32;;
9409;SDS011;4744;52.576;13.568;2023-08-20T02:45:41;12.38;;;11.30;;
9409;SDS011;4744;52.576;13.568;2023-08-20T02:48:09;12.55;;;11.48;;
9409;SDS011;4744;52.576;13.568;2023-08-20T02:50:36;12.55;;;11.57;;
9409;SDS011;4744;52.576;13.568;2023-08-20T02:53:03;12.43;;;11.43;;
9409;SDS011;4744;52.576;13.568;2023-08-20T02:55:32;12.18;;;11.18;;
9409;SDS011;4744;52.576;13.568;2023-08-20T02:58:00;12.52;;;11.50;;
9409;SDS011;4744;52.576;13.568;2023-08-20T03:00:28;12.25;;;11.20;;
9409;SDS011;4744;52.576;13.568;2023-08-20T03:02:55;12.52;;;11.52;;
9409;SDS011;4744;52.576;13.568;2023-08-20T03:05:23;13.10;;;12.10;;
9409;SDS011;4744;52.576;13.568;2023-08-20T03:07:50;12.07;;;11.07;;
9409;SDS011;4744;52.576;13.568;2023-08-20T03:10:17;14.95;;;13.23;;
9409;SDS011;4744;52.576;13.568;2023-08-20T03:12:45;13.70;;;12.50;;
9409;SDS011;4744;52.576;13.568;2023-08-20T03:15:12;14.82;;;13.32;;
9409;SDS011;4744;52.576;13.568;2023-08-20T03:17:39;14.95;;;13.45;;
9409;SDS011;4744;52.576;13.568;2023-08-20T03:20:06;12.95;;;12.05;;
9409;SDS011;4744;52.576;13.568;2023-08-20T03:22:35;13.38;;;12.10;;
9409;SDS011;4744;52.576;13.568;2023-08-20T03:25:03;14.50;;;13.30;;
9409;SDS011;4744;52.576;13.568;2023-08-20T03:27:30;13.98;;;12.77;;
9409;SDS011;4744;52.576;13.568;2023-08-20T03:29:59;13.02;;;11.93;;
9409;SDS011;4744;52.576;13.568;2023-08-20T03:32:26;12.63;;;11.63;;
9409;SDS011;4744;52.576;13.568;2023-08-20T03:34:53;14.82;;;13.32;;
9409;SDS011;4744;52.576;13.568;2023-08-20T03:37:21;14.60;;;13.40;;
9409;SDS011;4744;52.576;13.568;2023-08-20T03:39:48;15.13;;;13.85;;
9409;SDS011;4744;52.576;13.568;2023-08-20T03:42:15;14.07;;;12.98;;
9409;SDS011;4744;52.576;13.568;2023-08-20T03:44:42;14.75;;;13.45;;
9409;SDS011;4744;52.576;13.568;2023-08-20T03:47:10;15.25;;;13.88;;
9409;SDS011;4744;52.576;13.568;2023-08-20T03:49:37;13.30;;;12.23;;
9409;SDS011;4744;52.576;13.568;2023-08-20T03:52:04;14.40;;;13.13;;
9409;SDS011;4744;52.576;13.568;2023-08-20T03:54:32;14.38;;;13.18;;
9409;SDS011;4744;52.576;13.568;2023-08-20T03:56:59;14.68;;;13.27;;
9409;SDS011;4744;52.576;13.568;2023-08-20T03:59:26;14.13;;;12.85;;
9409;SDS011;4744;52.576;13.568;2023-08-20T04:01:52;13.98;;;12.77;;
9409;SDS011;4744;52.576;13.568;2023-08-20T04:04:21;13.73;;;12.70;;
9409;SDS011;4744;52.576;13.568;2023-08-20T04:06:48;14.82;;;13.63;;
9409;SDS011;4744;52.576;13.568;2023-08-20T04:09:15;13.77;;;12.45;;
9409;SDS011;4744;52.576;13.568;2023-08-20T04:11:42;14.35;;;13.05;;
9409;SDS011;4744;52.576;13.568;2023-08-20T04:14:09;14.52;;;13.27;;
9409;SDS011;4744;52.576;13.568;2023-08-20T04:16:36;14.52;;;13.20;;
9409;SDS011;4744;52.576;13.568;2023-08-20T04:19:03;12.43;;;11.43;;
9409;SDS011;4744;52.576;13.568;2023-08-20T04:21:31;12.63;;;11.57;;
9409;SDS011;4744;52.576;13.568;2023-08-20T04:23:58;14.20;;;13.00;;
9409;SDS011;4744;52.576;13.568;2023-08-20T04:26:25;14.38;;;12.95;;
9409;SDS011;4744;52.576;13.568;2023-08-20T04:28:52;14.05;;;12.93;;
9409;SDS011;4744;52.576;13.568;2023-08-20T04:31:18;13.40;;;12.30;;
9409;SDS011;4744;52.576;13.568;2023-08-20T04:33:45;14.18;;;12.95;;
9409;SDS011;4744;52.576;13.568;2023-08-20T04:36:12;13.18;;;12.07;;
9409;SDS011;4744;52.576;13.568;2023-08-20T04:38:41;14.68;;;13.48;;
9409;SDS011;4744;52.576;13.568;2023-08-20T04:41:07;13.88;;;12.68;;
9409;SDS011;4744;52.576;13.568;2023-08-20T04:43:34;13.20;;;12.20;;
9409;SDS011;4744;52.576;13.568;2023-08-20T04:46:01;13.82;;;12.68;;
9409;SDS011;4744;52.576;13.568;2023-08-20T04:48:28;14.70;;;13.43;;
9409;SDS011;4744;52.576;13.568;2023-08-20T04:50:55;13.95;;;12.77;;
9409;SDS011;4744;52.576;13.568;2023-08-20T04:53:22;13.90;;;12.80;;
9409;SDS011;4744;52.576;13.568;2023-08-20T04:55:50;14.20;;;12.70;;
9409;SDS011;4744;52.576;13.568;2023-08-20T04:58:17;15.10;;;13.82;;
9409;SDS011;4744;52.576;13.568;2023-08-20T05:00:44;13.85;;;12.73;;
9409;SDS011;4744;52.576;13.568;2023-08-20T05:03:11;14.63;;;13.20;;
9409;SDS011;4744;52.576;13.568;2023-08-20T05:05:38;14.45;;;13.15;;
9409;SDS011;4744;52.576;13.568;2023-08-20T05:08:05;14.88;;;13.45;;
9409;SDS011;4744;52.576;13.568;2023-08-20T05:10:34;14.40;;;13.18;;
9409;SDS011;4744;52.576;13.568;2023-08-20T05:13:03;12.75;;;11.57;;
9409;SDS011;4744;52.576;13.568;2023-08-20T05:15:30;12.50;;;11.40;;
9409;SDS011;4744;52.576;13.568;2023-08-20T05:17:57;15.32;;;13.82;;
9409;SDS011;4744;52.576;13.568;2023-08-20T05:20:24;15.27;;;13.88;;
9409;SDS011;4744;52.576;13.568;2023-08-20T05:22:51;14.75;;;13.55;;
9409;SDS011;4744;52.576;13.568;2023-08-20T05:25:18;15.30;;;13.90;;
9409;SDS011;4744;52.576;13.568;2023-08-20T05:27:45;14.98;;;13.73;;
9409;SDS011;4744;52.576;13.568;2023-08-20T05:30:13;14.63;;;13.38;;
9409;SDS011;4744;52.576;13.568;2023-08-20T05:32:41;13.07;;;11.98;;
9409;SDS011;4744;52.576;13.568;2023-08-20T05:35:08;14.13;;;12.93;;
9409;SDS011;4744;52.576;13.568;2023-08-20T05:37:34;14.68;;;13.30;;
9409;SDS011;4744;52.576;13.568;2023-08-20T05:40:01;13.90;;;12.50;;
9409;SDS011;4744;52.576;13.568;2023-08-20T05:42:29;14.63;;;13.18;;
9409;SDS011;4744;52.576;13.568;2023-08-20T05:44:56;13.65;;;12.43;;
9409;SDS011;4744;52.576;13.568;2023-08-20T05:47:24;14.40;;;13.18;;
9409;SDS011;4744;52.576;13.568;2023-08-20T05:49:51;13.40;;;12.02;;
9409;SDS011;4744;52.576;13.568;2023-08-20T05:52:18;14.40;;;13.13;;
9409;SDS011;4744;52.576;13.568;2023-08-20T05:54:44;13.32;;;12.10;;
9409;SDS011;4744;52.576;13.568;2023-08-20T05:57:12;13.20;;;11.95;;
9409;SDS011;4744;52.576;13.568;2023-08-20T05:59:38;13.43;;;12.32;;
9409;SDS011;4744;52.576;13.568;2023-08-20T06:02:05;13.65;;;12.45;;
9409;SDS011;4744;52.576;13.568;2023-08-20T06:04:34;14.48;;;13.05;;
9409;SDS011;4744;52.576;13.568;2023-08-20T06:07:00;13.55;;;12.43;;
9409;SDS011;4744;52.576;13.568;2023-08-20T06:09:27;14.32;;;13.13;;
9409;SDS011;4744;52.576;13.568;2023-08-20T06:11:54;13.68;;;12.48;;
9409;SDS011;4744;52.576;13.568;2023-08-20T06:14:21;12.85;;;11.63;;
9409;SDS011;4744;52.576;13.568;2023-08-20T06:16:48;13.23;;;12.10;;
9409;SDS011;4744;52.576;13.568;2023-08-20T06:19:15;13.30;;;12.20;;
9409;SDS011;4744;52.576;13.568;2023-08-20T06:21:44;12.50;;;11.40;;
9409;SDS011;4744;52.576;13.568;2023-08-20T06:24:10;13.05;;;11.95;;
9409;SDS011;4744;52.576;13.568;2023-08-20T06:26:37;13.45;;;12.15;;
9409;SDS011;4744;52.576;13.568;2023-08-20T06:29:04;12.55;;;11.45;;
9409;SDS011;4744;52.576;13.568;2023-08-20T06:31:31;13.18;;;12.07;;
9409;SDS011;4744;52.576;13.568;2023-08-20T06:33:58;12.65;;;11.55;;
9409;SDS011;4744;52.576;13.568;2023-08-20T06:36:25;11.55;;;10.55;;
9409;SDS011;4744;52.576;13.568;2023-08-20T06:38:53;11.82;;;10.63;;
9409;SDS011;4744;52.576;13.568;2023-08-20T06:41:20;11.95;;;10.95;;
9409;SDS011;4744;52.576;13.568;2023-08-20T06:43:47;11.25;;;10.15;;
9409;SDS011;4744;52.576;13.568;2023-08-20T06:46:14;11.73;;;10.68;;
9409;SDS011;4744;52.576;13.568;2023-08-20T06:48:41;11.55;;;10.57;;
9409;SDS011;4744;52.576;13.568;2023-08-20T06:51:10;11.55;;;10.55;;
9409;SDS011;4744;52.576;13.568;2023-08-20T06:53:38;11.50;;;10.60;;
9409;SDS011;4744;52.576;13.568;2023-08-20T06:56:07;11.20;;;10.30;;
9409;SDS011;4744;52.576;13.568;2023-08-20T06:58:34;10.43;;;9.45;;
9409;SDS011;4744;52.576;13.568;2023-08-20T07:01:02;11.25;;;10.25;;
9409;SDS011;4744;52.576;13.568;2023-08-20T07:03:38;9.63;;;8.82;;
9409;SDS011;4744;52.576;13.568;2023-08-20T07:06:07;10.77;;;9.85;;
9409;SDS011;4744;52.576;13.568;2023-08-20T07:08:35;10.93;;;10.02;;
9409;SDS011;4744;52.576;13.568;2023-08-20T07:11:04;10.85;;;9.95;;
9409;SDS011;4744;52.576;13.568;2023-08-20T07:13:32;10.52;;;9.63;;
9409;SDS011;4744;52.576;13.568;2023-08-20T07:15:59;10.52;;;9.52;;
9409;SDS011;4744;52.576;13.568;2023-08-20T07:18:27;10.57;;;9.68;;
9409;SDS011;4744;52.576;13.568;2023-08-20T07:20:54;10.77;;;9.82;;
9409;SDS011;4744;52.576;13.568;2023-08-20T07:23:22;10.52;;;9.63;;
9409;SDS011;4744;52.576;13.568;2023-08-20T07:25:49;10.88;;;9.77;;
9409;SDS011;4744;52.576;13.568;2023-08-20T07:28:17;10.50;;;9.60;;
9409;SDS011;4744;52.576;13.568;2023-08-20T07:30:53;11.32;;;10.32;;
9409;SDS011;4744;52.576;13.568;2023-08-20T07:33:20;12.63;;;11.52;;
9409;SDS011;4744;52.576;13.568;2023-08-20T07:35:47;11.63;;;10.52;;
9409;SDS011;4744;52.576;13.568;2023-08-20T07:38:14;12.55;;;11.35;;
9409;SDS011;4744;52.576;13.568;2023-08-20T07:40:40;11.48;;;10.52;;
9409;SDS011;4744;52.576;13.568;2023-08-20T07:43:07;11.68;;;10.77;;
9409;SDS011;4744;52.576;13.568;2023-08-20T07:45:34;13.90;;;11.30;;
9409;SDS011;4744;52.576;13.568;2023-08-20T07:48:04;10.70;;;9.77;;
9409;SDS011;4744;52.576;13.568;2023-08-20T07:50:31;11.45;;;10.43;;
9409;SDS011;4744;52.576;13.568;2023-08-20T07:52:58;11.93;;;10.70;;
9409;SDS011;4744;52.576;13.568;2023-08-20T07:55:25;11.20;;;10.30;;
9409;SDS011;4744;52.576;13.568;2023-08-20T07:57:52;11.05;;;9.95;;
9409;SDS011;4744;52.576;13.568;2023-08-20T08:00:19;12.05;;;11.05;;
9409;SDS011;4744;52.576;13.568;2023-08-20T08:02:46;11.60;;;10.45;;
9409;SDS011;4744;52.576;13.568;2023-08-20T08:05:14;11.35;;;10.38;;
9409;SDS011;4744;52.576;13.568;2023-08-20T08:07:41;10.65;;;9.75;;
9409;SDS011;4744;52.576;13.568;2023-08-20T08:10:08;10.80;;;9.90;;
9409;SDS011;4744;52.576;13.568;2023-08-20T08:12:35;11.35;;;10.35;;
9409;SDS011;4744;52.576;13.568;2023-08-20T08:15:02;11.00;;;10.02;;
9409;SDS011;4744;52.576;13.568;2023-08-20T08:17:29;10.48;;;9.68;;
9409;SDS011;4744;52.576;13.568;2023-08-20T08:19:56;12.70;;;9.73;;
9409;SDS011;4744;52.576;13.568;2023-08-20T08:22:25;11.68;;;10.15;;
9409;SDS011;4744;52.576;13.568;2023-08-20T08:24:52;9.93;;;9.02;;
9409;SDS011;4744;52.576;13.568;2023-08-20T08:27:18;11.70;;;10.70;;
9409;SDS011;4744;52.576;13.568;2023-08-20T08:29:45;10.23;;;9.18;;
9409;SDS011;4744;52.576;13.568;2023-08-20T08:32:13;11.07;;;10.05;;
9409;SDS011;4744;52.576;13.568;2023-08-20T08:34:40;10.95;;;9.73;;
9409;SDS011;4744;52.576;13.568;2023-08-20T08:37:07;11.00;;;10.05;;
9409;SDS011;4744;52.576;13.568;2023-08-20T08:39:35;11.07;;;10.15;;
9409;SDS011;4744;52.576;13.568;2023-08-20T08:42:02;12.07;;;10.88;;
9409;SDS011;4744;52.576;13.568;2023-08-20T08:44:32;10.98;;;9.93;;
9409;SDS011;4744;52.576;13.568;2023-08-20T08:46:59;11.00;;;9.95;;
9409;SDS011;4744;52.576;13.568;2023-08-20T08:49:28;10.73;;;9.63;;
9409;SDS011;4744;52.576;13.568;2023-08-20T08:51:56;10.65;;;9.77;;
9409;SDS011;4744;52.576;13.568;2023-08-20T08:54:23;10.75;;;9.85;;
9409;SDS011;4744;52.576;13.568;2023-08-20T08:56:52;10.60;;;9.70;;
9409;SDS011;4744;52.576;13.568;2023-08-20T08:59:19;10.93;;;10.02;;
9409;SDS011;4744;52.576;13.568;2023-08-20T09:01:46;10.90;;;9.80;;
9409;SDS011;4744;52.576;13.568;2023-08-20T09:04:13;10.88;;;9.82;;
9409;SDS011;4744;52.576;13.568;2023-08-20T09:06:46;10.80;;;9.80;;
9409;SDS011;4744;52.576;13.568;2023-08-20T09:09:13;9.25;;;8.55;;
9409;SDS011;4744;52.576;13.568;2023-08-20T09:11:41;10.20;;;9.40;;
9409;SDS011;4744;52.576;13.568;2023-08-20T09:14:09;9.55;;;8.75;;
9409;SDS011;4744;52.576;13.568;2023-08-20T09:16:50;10.93;;;9.77;;
9409;SDS011;4744;52.576;13.568;2023-08-20T09:19:20;9.73;;;8.93;;
9409;SDS011;4744;52.576;13.568;2023-08-20T09:21:47;9.38;;;8.68;;
9409;SDS011;4744;52.576;13.568;2023-08-20T09:24:14;10.18;;;9.00;;
9409;SDS011;4744;52.576;13.568;2023-08-20T09:26:44;9.15;;;8.45;;
9409;SDS011;4744;52.576;13.568;2023-08-20T09:29:13;9.00;;;8.30;;
9409;SDS011;4744;52.576;13.568;2023-08-20T09:31:40;10.65;;;9.75;;
9409;SDS011;4744;52.576;13.568;2023-08-20T09:34:11;9.57;;;8.88;;
9409;SDS011;4744;52.576;13.568;2023-08-20T09:36:39;10.52;;;9.63;;
9409;SDS011;4744;52.576;13.568;2023-08-20T09:39:05;10.88;;;9.93;;
9409;SDS011;4744;52.576;13.568;2023-08-20T09:41:32;9.10;;;8.40;;
9409;SDS011;4744;52.576;13.568;2023-08-20T09:44:02;9.05;;;8.35;;
9409;SDS011;4744;52.576;13.568;2023-08-20T09:46:33;10.15;;;9.30;;
9409;SDS011;4744;52.576;13.568;2023-08-20T09:49:01;9.00;;;8.32;;
9409;SDS011;4744;52.576;13.568;2023-08-20T09:51:31;9.00;;;8.10;;
9409;SDS011;4744;52.576;13.568;2023-08-20T09:54:00;8.57;;;7.90;;
9409;SDS011;4744;52.576;13.568;2023-08-20T09:56:31;9.18;;;8.35;;
9409;SDS011;4744;52.576;13.568;2023-08-20T09:59:04;9.20;;;8.30;;
9409;SDS011;4744;52.576;13.568;2023-08-20T10:01:32;8.65;;;7.82;;
9409;SDS011;4744;52.576;13.568;2023-08-20T10:04:00;7.80;;;7.20;;
9409;SDS011;4744;52.576;13.568;2023-08-20T10:06:28;7.88;;;7.28;;
9409;SDS011;4744;52.576;13.568;2023-08-20T10:08:56;8.50;;;7.80;;
9409;SDS011;4744;52.576;13.568;2023-08-20T10:11:24;8.13;;;7.43;;
9409;SDS011;4744;52.576;13.568;2023-08-20T10:13:51;7.65;;;7.00;;
9409;SDS011;4744;52.576;13.568;2023-08-20T10:16:20;7.50;;;6.90;;
9409;SDS011;4744;52.576;13.568;2023-08-20T10:18:50;7.43;;;6.70;;
9409;SDS011;4744;52.576;13.568;2023-08-20T10:21:23;7.50;;;6.90;;
9409;SDS011;4744;52.576;13.568;2023-08-20T10:23:50;7.53;;;7.03;;
9409;SDS011;4744;52.576;13.568;2023-08-20T10:26:17;6.63;;;6.13;;
9409;SDS011;4744;52.576;13.568;2023-08-20T10:28:49;6.57;;;5.97;;
9409;SDS011;4744;52.576;13.568;2023-08-20T10:31:16;6.68;;;6.07;;
9409;SDS011;4744;52.576;13.568;2023-08-20T10:33:48;5.78;;;5.28;;
9409;SDS011;4744;52.576;13.568;2023-08-20T10:36:22;5.00;;;4.53;;
9409;SDS011;4744;52.576;13.568;2023-08-20T10:38:53;5.10;;;4.70;;
9409;SDS011;4744;52.576;13.568;2023-08-20T10:41:24;4.88;;;4.57;;
9409;SDS011;4744;52.576;13.568;2023-08-20T10:43:51;4.82;;;4.43;;
9409;SDS011;4744;52.576;13.568;2023-08-20T10:46:19;4.22;;;3.92;;
9409;SDS011;4744;52.576;13.568;2023-08-20T10:48:47;4.20;;;3.90;;
9409;SDS011;4744;52.576;13.568;2023-08-20T10:51:17;4.03;;;3.70;;
9409;SDS011;4744;52.576;13.568;2023-08-20T10:53:48;3.72;;;3.30;;
9409;SDS011;4744;52.576;13.568;2023-08-20T10:56:37;4.40;;;3.70;;
9409;SDS011;4744;52.576;13.568;2023-08-20T10:59:05;3.10;;;2.90;;
9409;SDS011;4744;52.576;13.568;2023-08-20T11:01:33;3.22;;;2.95;;
9409;SDS011;4744;52.576;13.568;2023-08-20T11:04:01;3.40;;;3.10;;
9409;SDS011;4744;52.576;13.568;2023-08-20T11:06:33;3.20;;;3.00;;
9409;SDS011;4744;52.576;13.568;2023-08-20T11:09:00;3.92;;;3.30;;
9409;SDS011;4744;52.576;13.568;2023-08-20T11:11:30;3.13;;;2.92;;
9409;SDS011;4744;52.576;13.568;2023-08-20T11:14:03;3.28;;;3.08;;
9409;SDS011;4744;52.576;13.568;2023-08-20T11:16:32;3.10;;;2.90;;
9409;SDS011;4744;52.576;13.568;2023-08-20T11:19:00;3.13;;;2.83;;
9409;SDS011;4744;52.576;13.568;2023-08-20T11:21:27;3.00;;;2.58;;
9409;SDS011;4744;52.576;13.568;2023-08-20T11:23:56;3.80;;;2.80;;
9409;SDS011;4744;52.576;13.568;2023-08-20T11:26:23;2.30;;;2.20;;
9409;SDS011;4744;52.576;13.568;2023-08-20T11:28:50;2.38;;;2.20;;
9409;SDS011;4744;52.576;13.568;2023-08-20T11:31:17;2.28;;;2.17;;
9409;SDS011;4744;52.576;13.568;2023-08-20T11:33:45;2.35;;;2.15;;
9409;SDS011;4744;52.576;13.568;2023-08-20T11:36:14;2.38;;;2.17;;
9409;SDS011;4744;52.576;13.568;2023-08-20T11:38:42;2.17;;;2.08;;
9409;SDS011;4744;52.576;13.568;2023-08-20T11:41:16;2.40;;;2.05;;
9409;SDS011;4744;52.576;13.568;2023-08-20T11:43:43;2.28;;;2.00;;
9409;SDS011;4744;52.576;13.568;2023-08-20T11:46:12;2.30;;;2.10;;
9409;SDS011;4744;52.576;13.568;2023-08-20T11:51:25;2.03;;;1.88;;
9409;SDS011;4744;52.576;13.568;2023-08-20T11:53:52;2.20;;;2.10;;
9409;SDS011;4744;52.576;13.568;2023-08-20T11:56:20;2.00;;;1.90;;
9409;SDS011;4744;52.576;13.568;2023-08-20T11:58:49;2.35;;;2.15;;
9409;SDS011;4744;52.576;13.568;2023-08-20T12:01:17;2.03;;;1.90;;
9409;SDS011;4744;52.576;13.568;2023-08-20T12:03:44;1.90;;;1.77;;
9409;SDS011;4744;52.576;13.568;2023-08-20T12:06:17;1.55;;;1.50;;
9409;SDS011;4744;52.576;13.568;2023-08-20T12:08:45;1.85;;;1.75;;
9409;SDS011;4744;52.576;13.568;2023-08-20T12:11:12;2.03;;;1.90;;
9409;SDS011;4744;52.576;13.568;2023-08-20T12:13:40;2.38;;;1.88;;
9409;SDS011;4744;52.576;13.568;2023-08-20T12:16:07;1.90;;;1.70;;
9409;SDS011;4744;52.576;13.568;2023-08-20T12:18:34;2.20;;;1.98;;
9409;SDS011;4744;52.576;13.568;2023-08-20T12:21:01;1.77;;;1.67;;
9409;SDS011;4744;52.576;13.568;2023-08-20T12:23:28;1.85;;;1.73;;
9409;SDS011;4744;52.576;13.568;2023-08-20T12:25:55;4.25;;;2.22;;
9409;SDS011;4744;52.576;13.568;2023-08-20T12:28:22;1.70;;;1.60;;
9409;SDS011;4744;52.576;13.568;2023-08-20T12:30:52;2.00;;;1.80;;
9409;SDS011;4744;52.576;13.568;2023-08-20T12:33:19;2.05;;;1.83;;
9409;SDS011;4744;52.576;13.568;2023-08-20T12:35:47;2.10;;;2.00;;
9409;SDS011;4744;52.576;13.568;2023-08-20T12:38:14;2.38;;;2.13;;
9409;SDS011;4744;52.576;13.568;2023-08-20T12:40:41;2.35;;;1.83;;
9409;SDS011;4744;52.576;13.568;2023-08-20T12:43:08;2.30;;;1.90;;
9409;SDS011;4744;52.576;13.568;2023-08-20T12:45:35;1.95;;;1.85;;
9409;SDS011;4744;52.576;13.568;2023-08-20T12:48:05;1.70;;;1.60;;
9409;SDS011;4744;52.576;13.568;2023-08-20T12:50:34;1.90;;;1.80;;
9409;SDS011;4744;52.576;13.568;2023-08-20T12:53:01;1.85;;;1.75;;
9409;SDS011;4744;52.576;13.568;2023-08-20T12:55:31;2.53;;;2.25;;
9409;SDS011;4744;52.576;13.568;2023-08-20T12:57:58;3.30;;;1.70;;
9409;SDS011;4744;52.576;13.568;2023-08-20T13:00:26;1.90;;;1.80;;
9409;SDS011;4744;52.576;13.568;2023-08-20T13:02:53;2.17;;;1.80;;
9409;SDS011;4744;52.576;13.568;2023-08-20T13:05:23;4.85;;;2.10;;
9409;SDS011;4744;52.576;13.568;2023-08-20T13:07:51;2.15;;;2.05;;
9409;SDS011;4744;52.576;13.568;2023-08-20T13:10:19;1.88;;;1.77;;
9409;SDS011;4744;52.576;13.568;2023-08-20T13:12:47;1.80;;;1.70;;
9409;SDS011;4744;52.576;13.568;2023-08-20T13:15:15;1.65;;;1.55;;
9409;SDS011;4744;52.576;13.568;2023-08-20T13:17:45;1.80;;;1.70;;
9409;SDS011;4744;52.576;13.568;2023-08-20T13:20:12;1.90;;;1.70;;
9409;SDS011;4744;52.576;13.568;2023-08-20T13:22:41;1.50;;;1.35;;
9409;SDS011;4744;52.576;13.568;2023-08-20T13:25:09;1.60;;;1.50;;
9409;SDS011;4744;52.576;13.568;2023-08-20T13:27:36;1.48;;;1.38;;
9409;SDS011;4744;52.576;13.568;2023-08-20T13:30:03;1.60;;;1.50;;
9409;SDS011;4744;52.576;13.568;2023-08-20T13:32:30;2.25;;;1.65;;
9409;SDS011;4744;52.576;13.568;2023-08-20T13:34:57;1.85;;;1.75;;
9409;SDS011;4744;52.576;13.568;2023-08-20T13:37:24;2.88;;;1.60;;
9409;SDS011;4744;52.576;13.568;2023-08-20T13:39:52;2.45;;;1.50;;
9409;SDS011;4744;52.576;13.568;2023-08-20T13:42:19;1.92;;;1.48;;
9409;SDS011;4744;52.576;13.568;2023-08-20T13:44:46;1.58;;;1.48;;
9409;SDS011;4744;52.576;13.568;2023-08-20T13:47:13;1.65;;;1.20;;
9409;SDS011;4744;52.576;13.568;2023-08-20T13:49:40;1.70;;;1.25;;
9409;SDS011;4744;52.576;13.568;2023-08-20T13:52:07;1.80;;;1.15;;
9409;SDS011;4744;52.576;13.568;2023-08-20T13:54:35;1.98;;;1.45;;
9409;SDS011;4744;52.576;13.568;2023-08-20T13:57:04;1.52;;;1.42;;
9409;SDS011;4744;52.576;13.568;2023-08-20T13:59:31;1.52;;;1.15;;
9409;SDS011;4744;52.576;13.568;2023-08-20T14:01:58;1.20;;;1.10;;
9409;SDS011;4744;52.576;13.568;2023-08-20T14:04:25;1.25;;;1.02;;
9409;SDS011;4744;52.576;13.568;2023-08-20T14:06:52;0.85;;;0.85;;
9409;SDS011;4744;52.576;13.568;2023-08-20T14:09:19;1.30;;;1.20;;
9409;SDS011;4744;52.576;13.568;2023-08-20T14:11:46;1.30;;;1.20;;
9409;SDS011;4744;52.576;13.568;2023-08-20T14:14:14;1.40;;;1.20;;
9409;SDS011;4744;52.576;13.568;2023-08-20T14:16:41;1.05;;;0.95;;
9409;SDS011;4744;52.576;13.568;2023-08-20T14:19:08;2.50;;;1.00;;
9409;SDS011;4744;52.576;13.568;2023-08-20T14:21:35;1.33;;;1.00;;
9409;SDS011;4744;52.576;13.568;2023-08-20T14:24:03;1.20;;;1.10;;
9409;SDS011;4744;52.576;13.568;2023-08-20T14:26:30;1.02;;;0.93;;
9409;SDS011;4744;52.576;13.568;2023-08-20T14:28:57;1.00;;;0.90;;
9409;SDS011;4744;52.576;13.568;2023-08-20T14:31:25;0.82;;;0.82;;
9409;SDS011;4744;52.576;13.568;2023-08-20T14:33:52;1.05;;;1.02;;
9409;SDS011;4744;52.576;13.568;2023-08-20T14:36:20;1.95;;;1.05;;
9409;SDS011;4744;52.576;13.568;2023-08-20T14:38:47;1.02;;;1.00;;
9409;SDS011;4744;52.576;13.568;2023-08-20T14:41:14;1.45;;;1.25;;
9409;SDS011;4744;52.576;13.568;2023-08-20T14:43:41;1.55;;;1.20;;
9409;SDS011;4744;52.576;13.568;2023-08-20T14:46:08;1.75;;;1.48;;
9409;SDS011;4744;52.576;13.568;2023-08-20T14:48:36;1.88;;;1.20;;
9409;SDS011;4744;52.576;13.568;2023-08-20T14:51:06;1.63;;;1.10;;
9409;SDS011;4744;52.576;13.568;2023-08-20T14:53:33;0.95;;;0.95;;